SUSQUEDA - VEÏNAT DEL COLL (La Selva)





Hora UTC 07:50
Temperatura 19.9 ºC
Humitat 64.3 %
Pressió 1017.1 hPa
Pluja 0.0 mm
Velocitat vent 4.6 km/h
Direcció vent ENE
Radiació solar 579.1 W/m²

Dades diàries 2024-06-18



Hora UTC (hivern +1h; estiu +2h)
Temperatura (ºC) Humitat (%) Pressió (hPa) Velocitat vent (km/h) Precipitació (mm) Radiació solar (W/m²)
Hora UTC Aire Humitat Pressió Vel. Dir. Vel. Max Dir. Intent. màx 5 min. Rad. Sol.
00:05 16.8 62.7 1018.0 4.0 SSE 4.0 SE 0.0 0.1
00:10 16.9 64.6 1018.0 5.9 S 13.4 SSE 0.0 0.1
00:15 17.0 67.9 1017.9 6.6 S 16.2 SSW 0.0 0.2
00:20 16.9 69.4 1017.9 6.3 S 13.8 S 0.0 0.1
00:25 16.8 69.7 1017.7 7.2 SE 17.3 SE 0.0 0.1
00:30 16.7 68.8 1017.7 6.7 SSE 15.5 S 0.0 0.1
00:35 16.7 68.2 1017.6 6.1 SE 10.6 SE 0.0 0.1
00:40 16.5 68.9 1017.6 5.0 SSE 10.6 SE 0.0 0.1
00:45 16.4 69.1 1017.5 4.3 SSE 11.3 ESE 0.0 0.1
00:50 16.4 69.9 1017.5 7.1 S 14.1 S 0.0 0.1
00:55 16.3 70.5 1017.5 9.1 S 17.6 S 0.0 0.2
01:00 16.2 71.1 1017.5 10.5 S 19.8 S 0.0 0.1
01:05 16.4 69.8 1017.4 11.8 S 22.9 SSW 0.0 0.2
01:10 16.7 68.3 1017.4 8.1 SSW 18.4 S 0.0 0.1
01:15 16.7 68.1 1017.3 8.1 SSW 13.8 SSW 0.0 0.1
01:20 16.7 68.1 1017.3 6.2 SW 12.0 SSW 0.0 0.1
01:25 16.6 69.5 1017.3 3.7 SW 8.1 SSW 0.0 0.2
01:30 16.6 70.0 1017.3 4.2 SSW 8.1 SSW 0.0 0.2
01:35 16.5 70.5 1017.2 5.3 SSW 11.6 SE 0.0 0.2
01:40 16.6 70.2 1017.2 5.5 SSW 12.0 S 0.0 0.1
01:45 16.6 70.3 1017.3 4.6 SW 9.2 SW 0.0 0.2
01:50 16.5 70.2 1017.3 4.9 SW 9.2 SSW 0.0 0.1
01:55 16.5 69.3 1017.2 4.5 SSW 8.8 WSW 0.0 0.1
02:00 16.5 69.5 1017.2 4.2 SW 7.4 SSW 0.0 0.1
02:05 16.5 70.5 1017.2 4.5 SW 8.1 SW 0.0 0.1
02:10 16.3 71.9 1017.2 4.8 SW 11.6 SW 0.0 0.1
02:15 16.3 71.5 1016.9 4.1 SW 9.2 SW 0.0 0.2
02:20 16.4 72.3 1016.9 4.4 WSW 8.1 WSW 0.0 0.1
02:25 16.3 73.1 1016.8 5.2 WSW 10.6 SW 0.0 0.1
02:30 16.2 74.0 1016.8 6.3 WSW 10.9 W 0.0 0.1
02:35 16.2 76.0 1016.7 5.7 WSW 10.2 SW 0.0 0.1
02:40 16.2 77.2 1016.7 6.4 SW 12.4 SSW 0.0 0.1
02:45 16.3 77.6 1016.6 5.8 WSW 12.7 SSW 0.0 0.2
02:50 16.2 78.3 1016.6 5.9 WSW 13.1 SSW 0.0 0.1
02:55 16.0 78.9 1016.5 6.1 WSW 13.4 SW 0.0 0.1
03:00 16.0 78.8 1016.5 5.1 SW 12.7 SSW 0.0 0.1
03:05 15.9 78.9 1016.5 5.2 SW 12.7 SSW 0.0 0.1
03:10 15.9 78.6 1016.5 5.5 SW 11.3 SW 0.0 0.2
03:15 15.9 77.9 1016.5 5.3 SW 10.2 SSW 0.0 0.2
03:20 15.9 77.6 1016.5 5.9 SW 10.6 SSW 0.0 0.1
03:25 15.9 77.5 1016.6 5.8 SW 13.4 SW 0.0 0.2
03:30 16.0 77.5 1016.6 5.5 SW 10.6 SW 0.0 0.2
03:35 16.0 76.9 1016.6 5.1 SW 9.9 W 0.0 0.1
03:40 15.9 77.0 1016.6 4.4 WSW 9.2 S 0.0 0.1
03:45 15.8 76.8 1016.6 4.8 SW 8.8 SSW 0.0 0.2
03:50 15.8 75.1 1016.6 4.1 SW 9.2 S 0.0 0.2
03:55 15.7 74.4 1016.6 3.8 SW 6.4 SSW 0.0 0.4
04:00 15.8 73.2 1016.6 3.8 SW 7.8 SSW 0.0 0.5
04:05 15.8 72.7 1016.6 4.4 SW 8.5 SSW 0.0 1.1
04:10 15.7 72.6 1016.6 3.7 SW 7.1 WSW 0.0 2.1
04:15 15.6 72.7 1016.5 3.1 SW 5.6 SW 0.0 3.7
04:20 15.7 71.5 1016.5 3.2 SW 5.6 WSW 0.0 5.7
04:25 15.9 70.6 1016.4 3.2 SW 5.6 SW 0.0 8.7
04:30 15.9 70.8 1016.4 3.4 SW 7.1 WSW 0.0 12.8
04:35 15.8 71.2 1016.3 2.9 SW 6.0 SW 0.0 16.3
04:40 15.8 71.0 1016.3 3.2 SW 6.7 S 0.0 20.9
04:45 16.0 70.2 1016.3 2.9 SW 6.0 S 0.0 30.4
04:50 16.3 69.1 1016.3 2.4 SW 5.3 SSW 0.0 41.3
04:55 16.5 68.5 1016.3 3.7 SW 6.7 SSW 0.0 39.4
05:00 16.8 67.0 1016.3 3.0 SW 5.6 SSW 0.0 56.5
05:05 17.1 66.2 1016.3 3.5 SSW 7.1 SW 0.0 47.5
05:10 17.4 65.6 1016.3 3.1 SSW 5.6 SSW 0.0 48.1
05:15 17.7 64.2 1016.3 1.7 S 3.2 S 0.0 77.0
05:20 18.0 64.7 1016.3 1.0 SSE 2.8 SE 0.0 56.5
05:25 18.2 64.3 1016.4 0.9 ESE 3.2 E 0.0 50.7
05:30 18.3 64.1 1016.4 1.1 E 4.2 E 0.0 45.6
05:35 18.8 62.7 1016.4 2.0 ESE 5.3 ENE 0.0 48.4
05:40 19.2 59.8 1016.4 3.1 ESE 8.1 ESE 0.0 92.3
05:45 19.3 58.8 1016.6 4.2 SE 11.3 ESE 0.0 60.1
05:50 19.2 56.2 1016.6 5.0 SE 10.9 SE 0.0 65.9
05:55 19.2 56.7 1016.6 6.0 SE 10.2 S 0.0 82.0
06:00 19.3 58.0 1016.6 5.0 ESE 12.0 SE 0.0 206.8
06:05 19.4 61.3 1016.7 3.5 ESE 7.4 ESE 0.0 251.6
06:10 19.3 61.8 1016.7 4.5 SSE 10.2 SSE 0.0 268.7
06:15 19.1 60.1 1016.9 7.7 SSE 13.4 S 0.0 285.3
06:20 18.6 59.0 1016.9 9.2 SE 15.5 SE 0.0 289.5
06:25 18.3 59.7 1016.9 9.9 SE 17.6 SE 0.0 316.7
06:30 18.2 59.3 1016.9 10.0 SE 18.7 SE 0.0 333.3
06:35 18.4 59.7 1017.0 8.7 SE 21.2 SE 0.0 351.4
06:40 18.8 60.2 1017.0 5.0 E 10.6 ENE 0.0 371.8
06:45 19.3 57.2 1017.1 5.5 ESE 10.9 ENE 0.0 384.8
06:50 19.4 57.5 1017.1 8.5 E 17.6 E 0.0 391.8
06:55 19.6 57.4 1017.1 7.6 E 16.9 E 0.0 408.4
07:00 19.7 58.2 1017.1 7.2 E 14.5 E 0.0 431.5
07:05 19.7 61.9 1017.1 6.6 E 13.8 E 0.0 447.4
07:10 19.7 61.3 1017.1 4.7 ENE 10.2 ENE 0.0 463.4
07:15 19.6 59.8 1017.1 5.9 E 12.7 E 0.0 460.2
07:20 19.4 62.5 1017.1 6.0 E 12.4 E 0.0 483.2
07:25 19.6 63.4 1017.1 5.5 E 11.6 E 0.0 490.2
07:30 19.6 62.8 1017.1 7.0 ENE 14.1 E 0.0 514.1
07:35 19.5 65.6 1017.1 5.8 ENE 10.9 ENE 0.0 535.0
07:40 19.8 64.6 1017.1 6.5 ENE 13.4 ENE 0.0 550.9
07:45 19.5 64.7 1017.1 5.5 ENE 11.6 ENE 0.0 564.7
07:50 19.9 64.3 1017.1 4.6 ENE 9.9 E 0.0 579.1
Màxima 20.5 78.9 1018.0 11.8 S 22.9 SSW 0.0 579.1
Mínima 15.2 56.2 1016.3
Total 0.0